Aviation Digital Data Service (ADDS)

Output produced by METARs form (1953 UTC 30 September 2014)
found at http://aviationweather.gov/adds/metars/
 
KAVL 301800Z 3018/0118 35009G18KT P6SM FEW028 
     FM302200 25008KT P6SM FEW028 
     FM010900 31003KT 5SM BR FEW028 
     FM011100 31003KT 1 1/2SM BR FEW028 
     FM011300 22003KT P6SM SCT028